Time;durP1;ratioP1;P1;durP2;ratioP2;P2;SDS_P1;SDS_P2;PMS_P1;PMS_P2;Temp;Humidity;BMP_temperature;BMP_pressure;BME280_temperature;BME280_humidity;BME280_pressure;Samples;Min_cycle;Max_cycle;Signal;HPM_P1;HPM_P2
2022/06/28 00:01:03;;;;;;;4.70;3.50;;;;;;;24.49;53.68;100372.05;1702007;84;21508;-78
2022/06/28 00:03:33;;;;;;;8.20;3.75;;;;;;;24.43;53.79;100371.28;1695483;83;21052;-78
2022/06/28 00:06:00;;;;;;;5.45;3.58;;;;;;;24.38;54.06;100361.49;1673434;85;21445;-78
2022/06/28 00:08:29;;;;;;;4.67;3.70;;;;;;;24.27;54.39;100359.84;1689532;84;21610;-78
2022/06/28 00:10:58;;;;;;;4.87;4.37;;;;;;;24.15;54.72;100366.37;1723183;83;21008;-78
2022/06/28 00:13:26;;;;;;;6.10;3.12;;;;;;;24.03;55.08;100376.41;1700773;82;21173;-78
2022/06/28 00:16:06;;;;;;;6.20;4.35;;;;;;;23.94;55.42;100379.44;1723258;83;21131;-78
2022/06/28 00:18:39;;;;;;;5.62;3.90;;;;;;;23.85;55.43;100388.33;1674242;84;21079;-79
2022/06/28 00:21:08;;;;;;;5.58;4.05;;;;;;;23.79;55.50;100399.11;1718733;82;21052;-78
2022/06/28 00:23:38;;;;;;;5.78;4.00;;;;;;;23.77;55.59;100414.96;1725946;81;21071;-79
2022/06/28 00:26:07;;;;;;;6.40;4.62;;;;;;;23.73;55.61;100422.94;1731747;82;21508;-78
2022/06/28 00:28:35;;;;;;;7.15;4.12;;;;;;;23.67;55.50;100433.68;1733673;81;21133;-80
2022/06/28 00:31:04;;;;;;;5.03;4.05;;;;;;;23.62;55.62;100427.90;1731119;82;21026;-78
2022/06/28 00:33:31;;;;;;;6.23;4.53;;;;;;;23.58;56.07;100430.48;1727714;81;21071;-79
2022/06/28 00:35:59;;;;;;;8.33;4.30;;;;;;;23.56;56.14;100445.36;1730367;82;21262;-80
2022/06/28 00:38:26;;;;;;;8.88;4.58;;;;;;;23.59;56.20;100458.45;1735480;81;21062;-79
2022/06/28 00:40:54;;;;;;;8.05;4.58;;;;;;;23.65;56.45;100471.77;1728254;82;21129;-78
2022/06/28 00:43:22;;;;;;;5.70;4.45;;;;;;;23.71;56.45;100483.28;1717116;82;21048;-79
2022/06/28 00:45:51;;;;;;;5.70;4.40;;;;;;;23.75;56.37;100493.20;1713693;82;21046;-79
2022/06/28 00:48:19;;;;;;;6.28;4.67;;;;;;;23.74;56.43;100503.06;1735697;82;21027;-79
2022/06/28 00:50:46;;;;;;;7.45;4.80;;;;;;;23.74;56.49;100505.74;1719314;80;21559;-78
2022/06/28 00:53:17;;;;;;;5.03;4.28;;;;;;;23.77;56.58;100501.94;1757699;81;21119;-80
2022/06/28 00:55:46;;;;;;;5.33;4.80;;;;;;;23.79;56.66;100507.52;1735717;81;21038;-78
2022/06/28 00:58:15;;;;;;;5.47;4.33;;;;;;;23.84;56.69;100506.27;1757985;81;21003;-78
2022/06/28 01:00:47;;;;;;;5.80;4.50;;;;;;;23.95;56.64;100508.80;1758120;81;21026;-79
2022/06/28 01:03:22;;;;;;;6.55;4.40;;;;;;;24.03;56.48;100505.77;1735826;81;21050;-79
2022/06/28 01:05:52;;;;;;;5.17;4.25;;;;;;;24.16;56.34;100504.63;1757986;81;21095;-79
2022/06/28 01:08:22;;;;;;;5.22;4.37;;;;;;;24.24;56.11;100512.80;1757534;81;21014;-78
2022/06/28 01:10:49;;;;;;;7.35;4.45;;;;;;;24.30;55.94;100510.88;1758040;81;21089;-78
2022/06/28 01:13:17;;;;;;;8.03;4.85;;;;;;;24.35;55.76;100505.10;1757689;81;21509;-79
2022/06/28 01:15:47;;;;;;;7.67;4.70;;;;;;;24.38;55.63;100501.63;1758102;81;21054;-79
2022/06/28 01:18:16;;;;;;;6.53;5.00;;;;;;;24.41;55.51;100503.18;1757654;81;21125;-78
2022/06/28 01:20:46;;;;;;;5.35;4.65;;;;;;;24.43;55.48;100511.93;1739341;81;21020;-78
2022/06/28 01:23:17;;;;;;;5.25;4.47;;;;;;;24.42;55.48;100513.77;1755951;81;21494;-78
2022/06/28 01:25:46;;;;;;;6.05;5.33;;;;;;;24.42;55.55;100512.43;1762423;81;21579;-78
2022/06/28 01:28:16;;;;;;;5.70;5.10;;;;;;;24.43;55.60;100533.36;1757896;81;21066;-79
2022/06/28 01:30:45;;;;;;;6.33;5.00;;;;;;;24.40;55.63;100517.58;1757830;81;21128;-78
2022/06/28 01:33:17;;;;;;;7.75;5.83;;;;;;;24.37;55.73;100525.41;1756948;81;21038;-79
2022/06/28 01:35:45;;;;;;;7.47;5.42;;;;;;;24.34;55.91;100512.30;1757901;81;21046;-79
2022/06/28 01:38:13;;;;;;;5.70;5.15;;;;;;;24.33;56.03;100523.14;1757645;81;21018;-78
2022/06/28 01:40:45;;;;;;;8.85;5.28;;;;;;;24.29;56.16;100525.27;1757929;81;21086;-78
2022/06/28 01:43:11;;;;;;;6.25;5.65;;;;;;;24.26;56.36;100510.33;1757551;81;21930;-78
2022/06/28 01:45:42;;;;;;;7.67;5.70;;;;;;;24.23;56.55;100511.95;1758085;81;21034;-78
2022/06/28 01:48:10;;;;;;;6.45;5.83;;;;;;;24.22;56.72;100510.28;1757643;81;21260;-80
2022/06/28 01:50:57;;;;;;;7.10;6.25;;;;;;;24.21;56.80;100508.56;1757743;80;21075;-78
2022/06/28 01:53:26;;;;;;;14.63;6.20;;;;;;;24.16;57.02;100512.16;1773394;79;21560;-79
2022/06/28 01:55:58;;;;;;;6.67;5.97;;;;;;;24.14;57.14;100510.14;1763013;79;21124;-79
2022/06/28 01:58:36;;;;;;;12.70;6.67;;;;;;;24.11;57.27;100523.81;1708702;81;21029;-79
2022/06/28 02:01:03;;;;;;;8.40;6.15;;;;;;;24.07;57.46;100529.58;1707674;84;21053;-78
2022/06/28 02:03:31;;;;;;;8.18;5.97;;;;;;;24.04;57.60;100542.26;1716648;81;21056;-77
2022/06/28 02:06:10;;;;;;;7.40;6.15;;;;;;;24.01;57.73;100535.84;1698171;83;21140;-77
2022/06/28 02:08:37;;;;;;;7.47;6.22;;;;;;;23.99;57.83;100545.84;1723034;83;21112;-77
2022/06/28 02:11:07;;;;;;;7.12;5.90;;;;;;;23.96;57.96;100542.61;1737035;82;21057;-78
2022/06/28 02:13:42;;;;;;;8.98;6.28;;;;;;;23.93;58.05;100549.08;1721185;82;21037;-78
2022/06/28 02:16:10;;;;;;;6.97;6.28;;;;;;;23.90;58.14;100548.03;1716470;82;21037;-78
2022/06/28 02:18:37;;;;;;;6.95;6.12;;;;;;;23.85;58.32;100544.92;1737627;82;21437;-78
2022/06/28 02:21:06;;;;;;;9.13;6.60;;;;;;;23.84;58.49;100563.81;1737409;82;21823;-78
2022/06/28 02:23:34;;;;;;;10.53;6.58;;;;;;;23.79;58.69;100562.87;1729011;82;21065;-78
2022/06/28 02:26:03;;;;;;;7.72;6.65;;;;;;;23.75;58.90;100563.66;1713118;83;20949;-78
2022/06/28 02:28:30;;;;;;;7.20;6.42;;;;;;;23.70;59.17;100569.03;1718425;81;21081;-78
2022/06/28 02:30:58;;;;;;;7.72;6.92;;;;;;;23.62;59.38;100568.38;1715193;83;21485;-77
2022/06/28 02:33:25;;;;;;;7.65;6.97;;;;;;;23.53;59.68;100575.89;1711499;81;21082;-78
2022/06/28 02:41:26;;;;;;;8.03;7.22;;;;;;;23.25;61.00;100599.72;1722748;81;21000;-78
2022/06/28 02:43:53;;;;;;;8.78;7.30;;;;;;;23.14;61.35;100616.69;1711485;81;21027;-78
2022/06/28 02:46:20;;;;;;;9.23;7.10;;;;;;;23.05;61.63;100614.79;1723161;83;21104;-78
2022/06/28 02:48:47;;;;;;;7.58;6.80;;;;;;;22.97;61.95;100620.44;1715234;81;21094;-78
2022/06/28 02:51:15;;;;;;;8.18;7.42;;;;;;;22.89;62.23;100632.63;1724931;81;21180;-78
2022/06/28 02:53:42;;;;;;;8.00;7.20;;;;;;;22.83;62.59;100629.61;1736344;81;21007;-78
2022/06/28 02:56:10;;;;;;;9.13;6.92;;;;;;;22.73;62.92;100633.56;1736626;82;21003;-78
2022/06/28 02:58:38;;;;;;;8.70;7.37;;;;;;;22.69;63.23;100660.16;1728506;81;21090;-78
2022/06/28 03:01:07;;;;;;;9.58;7.42;;;;;;;22.65;63.39;100684.13;1733523;82;20999;-78
2022/06/28 03:03:35;;;;;;;7.80;7.10;;;;;;;22.55;63.71;100693.86;1728989;81;21021;-78
2022/06/28 03:06:04;;;;;;;8.38;7.05;;;;;;;22.47;63.97;100707.39;1724594;81;21088;-79
2022/06/28 03:08:32;;;;;;;8.13;7.37;;;;;;;22.41;64.18;100691.84;1724762;82;21067;-78
2022/06/28 03:11:00;;;;;;;8.88;7.67;;;;;;;22.35;64.65;100696.84;1732996;81;21098;-79
2022/06/28 03:13:28;;;;;;;8.63;7.83;;;;;;;22.27;64.82;100678.77;1724724;81;21009;-78
2022/06/28 03:15:55;;;;;;;9.45;8.40;;;;;;;22.18;65.59;100679.53;1733697;81;20999;-84
2022/06/28 03:18:23;;;;;;;16.73;8.90;;;;;;;22.02;65.98;100711.92;1724728;82;21025;-79
2022/06/28 03:20:50;;;;;;;12.00;9.85;;;;;;;21.63;66.32;100722.11;1732924;82;21102;-78
2022/06/28 03:23:18;;;;;;;17.75;10.03;;;;;;;21.15;67.20;100736.91;1732940;81;21214;-77
2022/06/28 03:25:47;;;;;;;15.65;11.12;;;;;;;20.70;68.41;100720.27;1710656;82;21059;-77
2022/06/28 03:28:14;;;;;;;17.23;11.53;;;;;;;20.34;69.53;100733.58;1733730;81;21013;-76
2022/06/28 03:30:41;;;;;;;23.18;12.53;;;;;;;20.05;70.56;100741.37;1725246;81;21021;-77
2022/06/28 03:33:08;;;;;;;18.70;12.70;;;;;;;19.80;71.65;100742.25;1726315;81;21062;-77
2022/06/28 03:35:37;;;;;;;21.90;12.93;;;;;;;19.59;72.55;100735.73;1736686;82;21098;-76
2022/06/28 03:38:04;;;;;;;35.68;12.73;;;;;;;19.35;73.63;100729.84;1735520;82;21089;-77
2022/06/28 03:40:49;;;;;;;24.55;14.33;;;;;;;19.09;74.75;100693.55;1705024;83;21057;-76
2022/06/28 03:43:17;;;;;;;24.50;14.68;;;;;;;18.89;76.73;100686.94;1736325;82;21576;-76
2022/06/28 03:45:45;;;;;;;25.77;14.70;;;;;;;18.81;77.43;100664.87;1736773;82;21018;-77
2022/06/28 03:51:17;;;;;;;17.95;14.45;;;;;;;18.65;79.12;100649.11;1683870;85;21535;-79
2022/06/28 03:54:04;;;;;;;15.83;14.35;;;;;;;18.59;79.80;100647.31;1685027;85;21035;-79
2022/06/28 03:56:32;;;;;;;17.65;15.93;;;;;;;18.57;80.72;100642.58;1685273;84;21020;-80
2022/06/28 03:59:01;;;;;;;18.85;16.87;;;;;;;18.61;81.42;100650.25;1684829;84;21004;-81
2022/06/28 04:01:28;;;;;;;18.67;16.73;;;;;;;18.66;81.75;100661.41;1684951;85;21296;-81
2022/06/28 04:03:56;;;;;;;17.07;15.28;;;;;;;18.68;82.23;100660.84;1684736;84;21020;-81
2022/06/28 04:06:23;;;;;;;18.05;16.23;;;;;;;18.68;82.08;100666.64;1684952;84;21042;-81
2022/06/28 04:08:50;;;;;;;18.02;16.30;;;;;;;18.68;82.97;100671.47;1690308;84;21062;-81
2022/06/28 04:11:18;;;;;;;17.57;15.98;;;;;;;18.75;83.45;100663.12;1684990;84;21031;-81
2022/06/28 04:13:50;;;;;;;18.07;16.48;;;;;;;18.79;83.66;100658.83;1684683;84;21119;-81
2022/06/28 04:16:19;;;;;;;16.82;15.32;;;;;;;18.79;83.95;100658.83;1685201;84;21126;-81
2022/06/28 04:18:47;;;;;;;17.92;16.30;;;;;;;18.80;83.95;100663.18;1684807;84;21066;-81
2022/06/28 04:21:22;;;;;;;17.67;15.93;;;;;;;18.83;84.77;100670.09;1684738;84;21075;-81
2022/06/28 04:23:51;;;;;;;18.30;16.62;;;;;;;18.89;85.20;100671.84;1685020;84;21015;-80
2022/06/28 04:26:18;;;;;;;17.07;15.35;;;;;;;18.97;85.49;100675.32;1685044;84;21061;-81
2022/06/28 04:28:45;;;;;;;17.87;16.27;;;;;;;18.99;85.52;100664.13;1690216;84;21007;-80
2022/06/28 04:31:15;;;;;;;18.23;16.48;;;;;;;19.01;85.64;100656.91;1685205;84;21027;-81
2022/06/28 04:33:43;;;;;;;18.37;16.67;;;;;;;19.03;86.06;100649.66;1690226;84;21016;-81
2022/06/28 04:36:11;;;;;;;18.87;17.07;;;;;;;19.07;86.29;100638.37;1685044;84;21000;-81
2022/06/28 04:38:40;;;;;;;21.68;16.87;;;;;;;19.13;86.72;100632.63;1684710;84;21120;-81
2022/06/28 04:41:17;;;;;;;19.17;17.50;;;;;;;19.19;86.92;100628.69;1684409;84;21023;-81
2022/06/28 04:43:55;;;;;;;19.37;17.40;;;;;;;19.23;87.08;100624.36;1684897;84;22194;-81
2022/06/28 04:46:24;;;;;;;;;;;;;;;19.26;87.27;100620.64;1686379;84;21047;-81
2022/06/28 04:48:53;;;;;;;17.62;15.95;;;;;;;19.26;87.87;100622.84;1684885;84;21277;-81
2022/06/28 04:51:22;;;;;;;17.60;15.90;;;;;;;19.32;87.78;100625.07;1720072;83;21933;-80
2022/06/28 04:53:50;;;;;;;16.62;14.93;;;;;;;19.35;87.75;100642.61;1721890;83;21010;-81
2022/06/28 04:56:20;;;;;;;15.85;14.28;;;;;;;19.30;87.24;100658.02;1721969;83;20983;-81
2022/06/28 04:58:49;;;;;;;17.52;14.95;;;;;;;19.22;87.14;100657.70;1721886;83;20983;-80
2022/06/28 05:01:17;;;;;;;17.57;15.88;;;;;;;19.23;87.75;100650.09;1721857;83;21070;-81
2022/06/28 05:03:46;;;;;;;17.40;15.70;;;;;;;19.30;88.41;100654.04;1722170;83;21924;-81
2022/06/28 05:06:32;;;;;;;16.42;14.95;;;;;;;19.33;88.44;100655.15;1721877;83;20995;-81
2022/06/28 05:08:59;;;;;;;16.37;14.87;;;;;;;19.37;88.67;100661.48;1721788;83;21486;-81
2022/06/28 05:11:29;;;;;;;25.27;14.23;;;;;;;19.38;88.52;100667.65;1725904;83;20954;-81
2022/06/28 05:14:01;;;;;;;13.93;12.65;;;;;;;19.40;88.72;100676.38;1712794;83;21000;-81
2022/06/28 05:16:28;;;;;;;14.73;13.43;;;;;;;19.39;88.48;100697.25;1722326;83;21079;-81
2022/06/28 05:18:56;;;;;;;14.83;13.53;;;;;;;19.38;88.78;100712.83;1722038;83;21007;-81
2022/06/28 05:21:25;;;;;;;14.63;12.93;;;;;;;19.41;89.13;100721.08;1722583;83;20987;-81
2022/06/28 05:23:52;;;;;;;15.85;14.23;;;;;;;19.46;89.31;100730.92;1722104;83;21011;-81
2022/06/28 05:26:37;;;;;;;12.53;11.43;;;;;;;19.51;89.67;100742.06;1722170;83;21535;-81
2022/06/28 05:29:06;;;;;;;12.65;11.48;;;;;;;19.57;89.59;100754.95;1722369;83;21183;-81
2022/06/28 05:31:33;;;;;;;12.47;11.28;;;;;;;19.54;89.61;100758.67;1722149;83;21499;-80
2022/06/28 05:34:01;;;;;;;10.68;9.58;;;;;;;19.58;89.69;100761.48;1722026;83;20991;-81
2022/06/28 05:36:29;;;;;;;9.40;8.60;;;;;;;19.52;89.09;100756.59;1722242;83;21010;-81
2022/06/28 05:38:57;;;;;;;9.65;8.85;;;;;;;19.52;89.24;100757.08;1722068;83;21009;-82
2022/06/28 05:41:25;;;;;;;10.30;9.30;;;;;;;19.50;89.67;100747.02;1722414;83;21762;-82
2022/06/28 05:43:52;;;;;;;12.13;9.25;;;;;;;19.57;90.12;100748.31;1721917;83;21527;-82
2022/06/28 05:46:19;;;;;;;9.93;9.03;;;;;;;19.59;90.07;100734.41;1722316;83;21014;-82
2022/06/28 05:48:47;;;;;;;9.28;8.33;;;;;;;19.63;90.27;100733.25;1722087;83;21002;-82
2022/06/28 05:51:14;;;;;;;11.05;9.15;;;;;;;19.69;90.53;100737.33;1718842;83;21067;-82
2022/06/28 05:53:41;;;;;;;9.75;8.80;;;;;;;19.74;90.60;100746.68;1717592;83;21094;-82
2022/06/28 05:56:08;;;;;;;10.93;9.38;;;;;;;19.75;90.24;100749.70;1717864;83;21003;-82
2022/06/28 05:58:35;;;;;;;9.60;8.70;;;;;;;19.79;90.80;100765.84;1717705;83;21389;-83
2022/06/28 06:01:04;;;;;;;9.98;7.50;;;;;;;19.87;90.66;100771.08;1717184;83;21010;-81
2022/06/28 06:03:33;;;;;;;8.20;7.50;;;;;;;19.90;90.02;100779.72;1716650;83;20991;-79
2022/06/28 06:06:00;;;;;;;8.58;7.62;;;;;;;19.82;89.71;100792.70;1717597;83;21105;-81
2022/06/28 06:08:29;;;;;;;8.78;7.97;;;;;;;19.74;89.80;100796.37;1715924;83;21523;-82
2022/06/28 06:10:57;;;;;;;9.45;8.58;;;;;;;19.73;90.18;100795.52;1717197;83;21020;-81
2022/06/28 06:13:24;;;;;;;8.53;7.47;;;;;;;19.81;90.84;100797.17;1717034;83;21062;-81
2022/06/28 06:15:51;;;;;;;8.80;8.00;;;;;;;19.90;90.93;100800.13;1717762;83;21018;-81
2022/06/28 06:18:18;;;;;;;8.33;7.53;;;;;;;19.95;91.18;100807.31;1717597;83;21129;-81
2022/06/28 06:20:45;;;;;;;13.53;7.08;;;;;;;19.91;90.27;100815.14;1716630;83;21035;-82
2022/06/28 06:23:12;;;;;;;7.35;6.60;;;;;;;19.88;90.21;100828.66;1717592;83;21023;-82
2022/06/28 06:25:58;;;;;;;9.83;6.92;;;;;;;19.81;90.04;100829.09;1717598;83;21018;-82
2022/06/28 06:28:25;;;;;;;6.85;6.15;;;;;;;19.90;90.72;100832.92;1717643;83;21022;-82
2022/06/28 06:30:53;;;;;;;7.65;6.95;;;;;;;19.83;89.46;100842.27;1717756;83;21087;-79
2022/06/28 06:33:22;;;;;;;7.42;6.83;;;;;;;19.83;90.52;100843.59;1716102;83;21054;-78
2022/06/28 06:36:09;;;;;;;7.05;6.45;;;;;;;19.96;90.88;100842.29;1693456;83;21026;-82
2022/06/28 06:38:36;;;;;;;9.73;7.55;;;;;;;20.06;91.11;100840.67;1716653;83;21437;-81
2022/06/28 06:41:03;;;;;;;36.53;23.75;;;;;;;20.13;90.86;100843.77;1717204;83;21111;-84
2022/06/28 06:43:32;;;;;;;14.10;10.90;;;;;;;20.11;90.51;100840.36;1717460;83;21103;-81
2022/06/28 06:46:03;;;;;;;7.92;7.12;;;;;;;20.11;90.52;100835.88;1716827;83;21011;-83
2022/06/28 06:48:31;;;;;;;8.65;6.58;;;;;;;20.22;90.54;100840.45;1717555;83;20959;-81
2022/06/28 06:50:59;;;;;;;7.05;5.60;;;;;;;20.25;90.55;100841.56;1717554;83;20999;-84
2022/06/28 06:53:28;;;;;;;6.33;5.72;;;;;;;20.24;89.95;100850.03;1717497;83;21034;-82
2022/06/28 06:55:55;;;;;;;6.13;5.60;;;;;;;20.30;90.77;100848.75;1717900;83;21937;-78
2022/06/28 06:58:23;;;;;;;6.45;5.53;;;;;;;20.38;90.52;100850.87;1716283;83;21058;-80
2022/06/28 07:00:50;;;;;;;6.72;6.20;;;;;;;20.42;90.48;100851.86;1717112;83;21101;-79
2022/06/28 07:03:17;;;;;;;6.45;5.87;;;;;;;20.52;90.93;100856.06;1715952;83;21027;-83
2022/06/28 07:05:44;;;;;;;7.75;5.28;;;;;;;20.65;91.08;100862.25;1715287;83;20968;-82
2022/06/28 07:08:11;;;;;;;6.12;5.53;;;;;;;20.75;90.63;100861.58;1715829;83;21138;-82
2022/06/28 07:10:40;;;;;;;6.30;5.70;;;;;;;20.78;90.54;100864.02;1716473;83;20939;-85
2022/06/28 07:13:07;;;;;;;6.60;6.00;;;;;;;20.82;89.88;100862.84;1716067;83;21679;-84
2022/06/28 07:15:36;;;;;;;5.05;4.55;;;;;;;20.91;90.35;100868.34;1715466;83;21019;-86
2022/06/28 07:18:04;;;;;;;4.05;3.75;;;;;;;21.02;89.84;100868.05;1716210;83;21019;-84
2022/06/28 07:20:31;;;;;;;4.12;3.72;;;;;;;21.09;89.27;100870.61;1716180;83;21126;-83
2022/06/28 07:22:59;;;;;;;4.10;3.70;;;;;;;21.23;89.55;100872.26;1716235;83;20996;-82
2022/06/28 07:25:26;;;;;;;3.50;3.20;;;;;;;21.42;89.71;100884.63;1715957;83;21023;-82
2022/06/28 07:27:54;;;;;;;4.92;3.60;;;;;;;21.56;88.93;100894.25;1716909;83;21002;-80
2022/06/28 07:30:21;;;;;;;4.45;3.72;;;;;;;21.61;88.47;100898.27;1715620;82;21079;-80
2022/06/28 07:32:48;;;;;;;4.70;4.30;;;;;;;21.66;88.03;100905.09;1715920;82;21112;-80
2022/06/28 07:35:18;;;;;;;6.00;4.60;;;;;;;21.70;87.92;100907.42;1715803;83;21016;-80
2022/06/28 07:37:46;;;;;;;5.55;5.05;;;;;;;21.71;87.10;100923.78;1713949;83;20983;-82
2022/06/28 07:40:14;;;;;;;5.63;5.03;;;;;;;21.65;86.60;100928.26;1696803;83;21015;-83
2022/06/28 07:42:55;;;;;;;5.60;5.10;;;;;;;21.64;86.53;100933.70;1675368;83;21051;-82
2022/06/28 07:45:36;;;;;;;5.72;5.22;;;;;;;21.69;86.47;100939.05;1704053;83;21140;-81
2022/06/28 07:48:08;;;;;;;7.33;5.47;;;;;;;21.69;86.00;100942.20;1716281;83;21011;-82
2022/06/28 07:53:21;;;;;;;5.72;5.22;;;;;;;21.83;85.96;100940.19;1721536;83;21039;-81
2022/06/28 07:56:07;;;;;;;5.78;5.25;;;;;;;21.86;85.42;100947.11;1716031;83;21011;-80
2022/06/28 07:58:40;;;;;;;6.30;5.70;;;;;;;21.82;84.79;100947.84;1716245;83;21137;-81
2022/06/28 08:01:09;;;;;;;6.00;5.42;;;;;;;21.79;84.42;100952.08;1716198;83;20992;-80
2022/06/28 08:03:36;;;;;;;6.35;5.72;;;;;;;21.80;84.24;100962.27;1715834;83;21242;-81
2022/06/28 08:06:04;;;;;;;6.80;6.17;;;;;;;21.77;84.08;100966.50;1716082;83;21013;-80
2022/06/28 08:08:33;;;;;;;6.80;6.10;;;;;;;21.74;83.82;100983.59;1716643;83;20983;-80
2022/06/28 08:11:00;;;;;;;6.97;6.37;;;;;;;21.69;83.34;100979.56;1716879;83;21067;-79
2022/06/28 08:13:28;;;;;;;6.65;5.97;;;;;;;21.63;83.24;100988.02;1716970;83;21476;-81
2022/06/28 08:15:56;;;;;;;6.85;6.25;;;;;;;21.55;83.04;100991.25;1717774;83;21065;-80
2022/06/28 08:18:24;;;;;;;7.83;6.30;;;;;;;21.52;83.34;100988.81;1717487;83;20995;-80
2022/06/28 08:20:51;;;;;;;7.30;6.70;;;;;;;21.53;83.57;100986.50;1717808;83;21015;-81
2022/06/28 08:23:18;;;;;;;7.22;6.55;;;;;;;21.52;83.35;100996.81;1717502;83;21125;-80
2022/06/28 08:25:46;;;;;;;6.22;5.62;;;;;;;21.49;83.42;100998.38;1717675;83;21019;-80
2022/06/28 08:28:15;;;;;;;5.28;4.70;;;;;;;21.41;82.92;101013.59;1717375;83;21011;-78
2022/06/28 08:30:43;;;;;;;4.37;4.08;;;;;;;21.23;82.22;101011.77;1717721;83;21015;-79
2022/06/28 08:33:11;;;;;;;5.45;4.50;;;;;;;21.09;81.93;101015.42;1697593;83;21034;-81
2022/06/28 08:35:40;;;;;;;5.97;4.30;;;;;;;20.91;81.55;101019.38;1717733;83;21152;-80
2022/06/28 08:38:07;;;;;;;5.62;4.95;;;;;;;20.74;81.63;101006.41;1717329;83;20999;-80
2022/06/28 08:40:37;;;;;;;6.60;4.78;;;;;;;20.66;81.97;101008.27;1717495;83;21100;-79
2022/06/28 08:43:07;;;;;;;5.22;4.72;;;;;;;20.69;82.43;101003.56;1717449;83;20983;-80
2022/06/28 08:45:35;;;;;;;6.05;5.45;;;;;;;20.79;82.61;100998.45;1717530;83;27140;-79
2022/06/28 08:48:19;;;;;;;5.85;5.30;;;;;;;20.89;82.64;100998.64;1717639;83;21126;-80
2022/06/28 08:50:51;;;;;;;6.83;5.97;;;;;;;21.05;82.74;101005.08;1717488;83;20888;-80
2022/06/28 08:53:23;;;;;;;6.97;5.60;;;;;;;21.19;82.43;101003.60;1717600;83;21461;-79
2022/06/28 08:55:51;;;;;;;6.28;5.35;;;;;;;21.31;82.22;100994.73;1717717;83;20991;-79
2022/06/28 08:58:19;;;;;;;6.60;5.90;;;;;;;21.41;81.96;100993.59;1717566;83;21469;-79
2022/06/28 09:00:47;;;;;;;6.15;5.65;;;;;;;21.53;81.68;101004.72;1717907;83;22047;-79
2022/06/28 09:03:15;;;;;;;6.50;5.90;;;;;;;21.63;81.42;101007.55;1717487;83;21011;-80
2022/06/28 09:05:42;;;;;;;7.00;5.28;;;;;;;21.71;81.43;101012.31;1717830;83;21504;-80
2022/06/28 09:08:09;;;;;;;6.33;5.83;;;;;;;21.75;81.05;101009.78;1717495;83;20991;-80
2022/06/28 09:10:37;;;;;;;6.35;5.70;;;;;;;21.77;80.68;101014.53;1717486;83;21019;-80
2022/06/28 09:13:14;;;;;;;6.03;5.47;;;;;;;21.77;80.44;101017.20;1717002;83;21480;-79
2022/06/28 09:15:55;;;;;;;6.47;5.83;;;;;;;21.73;80.02;101017.91;1717705;83;20971;-81
2022/06/28 09:18:37;;;;;;;6.55;5.92;;;;;;;21.61;79.43;101019.65;1717664;83;21469;-80
2022/06/28 09:21:12;;;;;;;7.03;5.97;;;;;;;21.45;79.10;101015.09;1711755;83;21010;-79
2022/06/28 09:23:42;;;;;;;6.70;6.10;;;;;;;21.38;79.28;101019.16;1717904;83;21039;-80
2022/06/28 09:26:17;;;;;;;9.25;6.37;;;;;;;21.32;78.90;101029.75;1717851;83;21191;-79
2022/06/28 09:28:48;;;;;;;6.60;6.00;;;;;;;21.27;78.86;101029.72;1717368;83;21481;-80
2022/06/28 09:31:26;;;;;;;6.58;5.92;;;;;;;21.27;79.31;101035.05;1717831;83;21559;-81
2022/06/28 09:34:07;;;;;;;6.78;6.17;;;;;;;21.28;79.29;101032.25;1716508;83;21014;-80
2022/06/28 09:36:42;;;;;;;6.28;5.65;;;;;;;21.32;79.12;101035.09;1717804;83;21007;-80
2022/06/28 09:39:19;;;;;;;6.83;5.50;;;;;;;21.34;78.83;101036.33;1717699;83;22392;-80
2022/06/28 09:41:49;;;;;;;6.42;5.83;;;;;;;21.36;78.79;101032.55;1717506;83;20930;-79
2022/06/28 09:44:17;;;;;;;6.17;5.40;;;;;;;21.44;79.13;101033.86;1717548;83;21441;-79
2022/06/28 09:46:45;;;;;;;5.90;5.40;;;;;;;21.53;78.85;101037.18;1717725;83;20999;-79
2022/06/28 09:49:14;;;;;;;8.23;4.73;;;;;;;21.59;78.42;101036.27;1717777;83;20987;-79
2022/06/28 09:51:42;;;;;;;5.20;4.70;;;;;;;21.63;77.77;101034.22;1717462;83;21180;-79
2022/06/28 09:54:10;;;;;;;7.05;5.12;;;;;;;21.65;77.53;101032.79;1717471;83;21039;-80
2022/06/28 09:56:42;;;;;;;5.50;5.05;;;;;;;21.74;77.62;101026.77;1717700;83;22020;-79
2022/06/28 09:59:10;;;;;;;5.50;5.00;;;;;;;21.85;77.30;101025.97;1717483;83;21010;-78
2022/06/28 10:01:38;;;;;;;5.75;5.25;;;;;;;21.97;77.17;101021.88;1717624;83;21074;-79
2022/06/28 10:04:06;;;;;;;5.17;4.78;;;;;;;22.06;76.85;101012.36;1717599;83;21138;-79
2022/06/28 10:06:34;;;;;;;5.30;4.80;;;;;;;22.17;76.78;101011.52;1717455;83;21552;-79
2022/06/28 10:09:03;;;;;;;7.28;4.97;;;;;;;22.32;76.69;101020.23;1717404;83;21504;-79
2022/06/28 10:15:01;;;;;;;5.72;5.12;;;;;;;22.52;76.39;101021.36;1697302;83;20964;-79
2022/06/28 10:16:58;;;;;;;5.30;4.87;;;;;;;23.02;75.80;101030.77;1717485;83;21237;-79
2022/06/28 10:19:27;;;;;;;5.95;5.22;;;;;;;23.15;74.86;101032.84;1717798;83;21011;-80
2022/06/28 10:21:59;;;;;;;5.90;5.40;;;;;;;23.26;74.58;101033.81;1717699;83;22236;-79
2022/06/28 10:24:57;;;;;;;5.92;5.42;;;;;;;23.34;74.00;101044.25;1717901;83;21016;-79
2022/06/28 10:27:27;;;;;;;5.90;5.33;;;;;;;23.42;73.75;101040.09;1717443;83;20999;-79
2022/06/28 10:30:08;;;;;;;6.30;5.80;;;;;;;23.45;73.20;101042.05;1717856;83;21872;-79
2022/06/28 10:32:43;;;;;;;6.80;5.97;;;;;;;23.41;72.75;101042.41;1717469;83;21480;-79
2022/06/28 10:35:31;;;;;;;6.15;5.55;;;;;;;23.36;72.44;101046.79;1717742;83;20996;-79
2022/06/28 10:38:16;;;;;;;6.37;5.78;;;;;;;23.30;72.04;101044.61;1701023;83;21026;-79
2022/06/28 10:40:49;;;;;;;6.72;5.78;;;;;;;23.13;71.17;101050.83;1717736;83;21035;-78
2022/06/28 10:43:38;;;;;;;6.75;6.15;;;;;;;23.05;71.30;101050.58;1717476;83;21336;-79
2022/06/28 10:46:09;;;;;;;8.98;6.15;;;;;;;23.10;71.75;101049.73;1717755;83;20919;-79
2022/06/28 10:48:54;;;;;;;7.28;6.42;;;;;;;23.14;71.52;101053.88;1717441;83;21473;-79
2022/06/28 10:51:22;;;;;;;6.05;5.55;;;;;;;23.18;71.48;101050.96;1717731;83;21031;-79
2022/06/28 10:54:06;;;;;;;6.15;5.65;;;;;;;23.21;71.31;101047.55;1717522;83;21473;-79
2022/06/28 10:56:47;;;;;;;6.12;5.62;;;;;;;23.26;71.38;101051.20;1717486;83;21107;-79
2022/06/28 10:59:16;;;;;;;5.83;5.33;;;;;;;23.34;71.09;101053.62;1699508;83;21504;-79
2022/06/28 11:01:54;;;;;;;5.90;5.40;;;;;;;23.42;71.06;101053.47;1717440;83;21514;-79
2022/06/28 11:04:25;;;;;;;5.80;5.30;;;;;;;23.45;71.07;101051.42;1717411;83;20983;-77
2022/06/28 11:07:03;;;;;;;5.80;5.30;;;;;;;23.51;70.88;101047.39;1717873;83;21039;-80
2022/06/28 11:10:05;;;;;;;5.65;5.10;;;;;;;23.55;70.73;101043.48;1717660;83;21951;-80
2022/06/28 11:12:40;;;;;;;5.35;4.95;;;;;;;23.63;70.42;101052.23;1707218;83;21031;-80
2022/06/28 11:15:32;;;;;;;5.20;4.80;;;;;;;23.66;69.88;101046.13;1716442;83;21027;-80
2022/06/28 11:18:00;;;;;;;5.25;4.85;;;;;;;23.72;69.73;101050.16;1716278;83;21011;-80
2022/06/28 11:20:36;;;;;;;5.45;4.95;;;;;;;23.77;69.27;101045.28;1715954;83;21293;-80
2022/06/28 11:23:06;;;;;;;5.60;4.78;;;;;;;23.74;68.78;101051.73;1716273;83;21160;-80
2022/06/28 11:28:18;;;;;;;6.40;5.12;;;;;;;23.61;68.16;101049.66;1716020;83;20996;-80
2022/06/28 11:30:45;;;;;;;4.95;4.55;;;;;;;23.59;68.45;101051.63;1716117;83;20931;-79
2022/06/28 11:33:12;;;;;;;4.75;4.35;;;;;;;23.58;68.10;101058.81;1716179;83;21070;-80
2022/06/28 11:35:40;;;;;;;5.17;4.37;;;;;;;23.60;67.97;101066.70;1697481;83;21608;-80
2022/06/28 11:38:14;;;;;;;5.10;4.70;;;;;;;23.57;67.71;101054.42;1715789;83;21015;-80
2022/06/28 11:40:49;;;;;;;4.55;4.15;;;;;;;23.60;67.37;101060.02;1716205;83;21003;-80
2022/06/28 11:43:25;;;;;;;4.80;4.40;;;;;;;23.58;67.09;101057.94;1715874;83;21534;-80
2022/06/28 11:45:51;;;;;;;4.60;4.20;;;;;;;23.60;67.17;101057.34;1716003;83;22021;-80
2022/06/28 11:48:34;;;;;;;4.50;4.10;;;;;;;23.73;67.30;101059.41;1716285;83;21464;-80
2022/06/28 11:51:01;;;;;;;4.75;4.35;;;;;;;24.23;67.78;101046.31;1715818;83;20996;-80
2022/06/28 11:53:30;;;;;;;4.55;4.15;;;;;;;24.85;67.75;101044.60;1715919;83;20980;-81